createdAt,value
2022-08-17T00:00:09.185Z,24.88
2022-08-17T00:02:59.935Z,22.50
2022-08-17T00:05:37.899Z,22.85
2022-08-17T00:08:04.998Z,22.25
2022-08-17T00:10:32.560Z,21.15
2022-08-17T00:12:59.710Z,22.13
2022-08-17T00:15:26.677Z,27.73
2022-08-17T00:17:53.778Z,28.35
2022-08-17T00:20:23.367Z,27.65
2022-08-17T00:23:16.079Z,29.65
2022-08-17T00:25:45.740Z,26.63
2022-08-17T00:28:15.867Z,27.63
2022-08-17T00:30:53.188Z,25.27
2022-08-17T00:33:27.328Z,25.60
2022-08-17T00:35:55.794Z,22.15
2022-08-17T00:38:24.438Z,24.42
2022-08-17T00:40:59.242Z,24.77
2022-08-17T00:43:39.407Z,22.60
2022-08-17T00:46:13.800Z,26.33
2022-08-17T00:48:42.115Z,20.52
2022-08-17T00:51:19.843Z,25.00
2022-08-17T00:54:19.152Z,22.15
2022-08-17T00:56:56.819Z,19.73
2022-08-17T00:59:27.657Z,24.13
2022-08-17T01:01:54.930Z,20.23
2022-08-17T01:04:22.702Z,21.83
2022-08-17T01:06:51.198Z,20.52
2022-08-17T01:09:19.485Z,20.15
2022-08-17T01:11:52.442Z,21.08
2022-08-17T01:14:25.530Z,21.88
2022-08-17T01:16:55.910Z,19.55
2022-08-17T01:19:29.576Z,20.88
2022-08-17T01:22:07.558Z,22.13
2022-08-17T01:24:37.301Z,21.52
2022-08-17T01:27:10.474Z,23.85
2022-08-17T01:29:39.436Z,20.48
2022-08-17T01:32:07.969Z,23.02
2022-08-17T01:34:42.515Z,23.63
2022-08-17T01:37:10.821Z,21.15
2022-08-17T01:39:43.597Z,26.95
2022-08-17T01:42:17.974Z,22.17
2022-08-17T01:44:44.964Z,24.25
2022-08-17T01:47:11.937Z,24.40
2022-08-17T01:49:39.550Z,23.63
2022-08-17T01:52:09.917Z,24.65
2022-08-17T01:54:39.878Z,21.10
2022-08-17T01:57:07.200Z,21.67
2022-08-17T01:59:34.237Z,23.52
2022-08-17T02:02:01.357Z,26.15
2022-08-17T02:04:28.241Z,21.42
2022-08-17T02:06:55.086Z,24.25
2022-08-17T02:09:29.917Z,21.58
2022-08-17T02:11:59.264Z,25.85
2022-08-17T02:14:26.765Z,22.20
2022-08-17T02:16:54.208Z,21.85
2022-08-17T02:19:21.986Z,22.90
2022-08-17T02:21:51.268Z,20.35
2022-08-17T02:24:58.390Z,19.40
2022-08-17T02:27:10.031Z,19.58
2022-08-17T02:29:37.279Z,20.45
2022-08-17T02:32:05.110Z,19.52
2022-08-17T02:34:32.519Z,19.42
2022-08-17T02:36:59.434Z,20.77
2022-08-17T02:39:26.307Z,25.70
2022-08-17T02:42:04.080Z,20.85
2022-08-17T02:44:39.431Z,20.67
2022-08-17T02:47:08.794Z,21.27
2022-08-17T02:49:36.197Z,21.25
2022-08-17T02:52:05.375Z,20.60
2022-08-17T02:54:41.131Z,23.38
2022-08-17T02:57:10.037Z,20.10
2022-08-17T02:59:38.281Z,20.05
2022-08-17T03:02:07.547Z,22.23
2022-08-17T03:04:35.300Z,20.85
2022-08-17T03:07:03.008Z,28.38
2022-08-17T03:09:29.957Z,23.45
2022-08-17T03:12:06.520Z,22.50
2022-08-17T03:14:34.531Z,19.92
2022-08-17T03:17:02.840Z,19.27
2022-08-17T03:19:30.416Z,21.48
2022-08-17T03:22:01.292Z,23.52
2022-08-17T03:24:48.142Z,24.60
2022-08-17T03:27:15.509Z,21.38
2022-08-17T03:29:42.331Z,25.67
2022-08-17T03:32:13.570Z,25.85
2022-08-17T03:34:41.153Z,24.42
2022-08-17T03:37:08.339Z,22.35
2022-08-17T03:39:35.232Z,21.83
2022-08-17T03:42:07.965Z,24.85
2022-08-17T03:44:57.803Z,29.27
2022-08-17T03:47:43.461Z,28.35
2022-08-17T03:50:30.914Z,26.60
2022-08-17T03:53:16.386Z,29.92
2022-08-17T03:56:02.146Z,28.42
2022-08-17T03:58:29.023Z,31.77
2022-08-17T04:00:56.005Z,29.50
2022-08-17T04:03:22.901Z,38.88
2022-08-17T04:05:49.726Z,35.53
2022-08-17T04:08:16.556Z,36.38
2022-08-17T04:10:45.149Z,32.63
2022-08-17T04:13:13.082Z,40.10
2022-08-17T04:15:40.295Z,39.13
2022-08-17T04:18:07.733Z,36.28
2022-08-17T04:20:37.989Z,37.20
2022-08-17T04:23:12.084Z,37.42
2022-08-17T04:25:42.133Z,38.35
2022-08-17T04:28:15.889Z,37.72
2022-08-17T04:30:45.306Z,45.13
2022-08-17T04:33:18.770Z,39.33
2022-08-17T04:35:49.437Z,48.90
2022-08-17T04:38:19.201Z,47.20
2022-08-17T04:41:04.990Z,46.78
2022-08-17T04:43:34.303Z,44.42
2022-08-17T04:46:05.032Z,46.75
2022-08-17T04:48:37.231Z,47.95
2022-08-17T04:51:11.563Z,42.45
2022-08-17T04:53:41.132Z,50.85
2022-08-17T04:56:11.804Z,50.03
2022-08-17T04:58:45.119Z,45.47
2022-08-17T05:01:12.320Z,49.30
2022-08-17T05:03:39.326Z,45.90
2022-08-17T05:06:06.471Z,45.22
2022-08-17T05:08:33.582Z,52.63
2022-08-17T05:11:00.738Z,51.45
2022-08-17T05:13:29.865Z,52.50
2022-08-17T05:15:59.608Z,49.25
2022-08-17T05:18:27.687Z,52.75
2022-08-17T05:20:54.787Z,54.63
2022-08-17T05:23:24.267Z,50.42
2022-08-17T05:25:54.847Z,52.17
2022-08-17T05:28:27.453Z,46.72
2022-08-17T05:30:57.433Z,52.65
2022-08-17T05:33:28.089Z,51.33
2022-08-17T05:35:56.983Z,48.30
2022-08-17T05:38:25.570Z,47.67
2022-08-17T05:40:53.287Z,44.72
2022-08-17T05:43:25.403Z,51.42
2022-08-17T05:46:20.438Z,46.95
2022-08-17T05:49:11.970Z,46.08
2022-08-17T05:51:44.406Z,44.35
2022-08-17T05:54:49.596Z,51.15
2022-08-17T05:57:22.095Z,48.13
2022-08-17T06:00:01.156Z,50.60
2022-08-17T06:02:30.929Z,41.92
2022-08-17T06:05:22.703Z,39.00
2022-08-17T06:07:58.161Z,41.95
2022-08-17T06:10:36.017Z,41.88
2022-08-17T06:13:41.210Z,42.55
2022-08-17T06:16:31.079Z,44.40
2022-08-17T06:19:16.157Z,43.10
2022-08-17T06:21:47.813Z,39.03
2022-08-17T06:26:53.998Z,39.17
2022-08-17T06:29:42.640Z,38.72
2022-08-17T06:32:13.000Z,41.58
2022-08-17T06:34:41.669Z,36.70
2022-08-17T06:37:40.929Z,37.60
2022-08-17T06:40:37.855Z,40.45
2022-08-17T06:43:33.219Z,36.67
2022-08-17T06:46:13.082Z,36.50
2022-08-17T06:48:50.136Z,38.67
2022-08-17T06:51:34.155Z,38.72
2022-08-17T06:54:22.499Z,34.22
2022-08-17T06:56:57.397Z,33.58
2022-08-17T06:59:55.444Z,34.97
2022-08-17T07:02:55.654Z,35.00
2022-08-17T07:05:42.740Z,30.23
2022-08-17T07:08:12.722Z,33.95
2022-08-17T07:10:46.312Z,31.70
2022-08-17T07:13:51.093Z,28.30
2022-08-17T07:16:25.085Z,33.22
2022-08-17T07:18:54.676Z,35.17
2022-08-17T07:22:00.474Z,34.75
2022-08-17T07:24:47.353Z,30.98
2022-08-17T07:27:16.553Z,23.65
2022-08-17T07:30:08.038Z,27.83
2022-08-17T07:32:47.637Z,25.98
2022-08-17T07:35:40.936Z,26.77
2022-08-17T07:38:27.802Z,26.70
2022-08-17T07:40:58.098Z,21.95
2022-08-17T07:43:29.626Z,25.35
2022-08-17T07:46:19.479Z,22.08
2022-08-17T07:48:52.750Z,26.95
2022-08-17T07:51:23.077Z,21.77
2022-08-17T07:53:50.048Z,19.15
2022-08-17T07:56:46.660Z,22.08
2022-08-17T07:59:18.374Z,19.17
2022-08-17T08:01:58.930Z,22.35
2022-08-17T08:05:02.079Z,23.73
2022-08-17T08:07:38.219Z,23.30
2022-08-17T08:10:36.829Z,19.45
2022-08-17T08:13:08.514Z,22.08
2022-08-17T08:15:53.935Z,18.75
2022-08-17T08:18:47.601Z,20.25
2022-08-17T08:21:44.114Z,21.95
2022-08-17T08:24:34.807Z,20.02
2022-08-17T08:27:15.997Z,19.50
2022-08-17T08:30:05.304Z,19.42
2022-08-17T08:32:46.548Z,20.58
2022-08-17T08:35:37.107Z,19.15
2022-08-17T08:38:20.313Z,21.88
2022-08-17T08:41:12.087Z,16.60
2022-08-17T08:46:35.602Z,18.10
2022-08-17T08:49:33.795Z,16.60
2022-08-17T08:52:25.746Z,18.25
2022-08-17T08:55:01.188Z,17.50
2022-08-17T08:57:34.712Z,19.48
2022-08-17T09:00:20.875Z,17.17
2022-08-17T09:03:51.714Z,14.60
2022-08-17T09:06:37.925Z,23.08
2022-08-17T09:09:26.407Z,19.83
2022-08-17T09:12:16.886Z,18.25
2022-08-17T09:15:18.462Z,19.98
2022-08-17T09:18:59.866Z,17.10
2022-08-17T09:21:47.946Z,15.68
2022-08-17T09:24:44.155Z,17.75
2022-08-17T09:27:15.631Z,17.90
2022-08-17T09:32:40.481Z,20.35
2022-08-17T09:35:19.933Z,19.63
2022-08-17T09:38:18.285Z,17.60
2022-08-17T09:41:12.841Z,14.98
2022-08-17T09:43:55.383Z,21.58
2022-08-17T09:46:35.109Z,14.73
2022-08-17T09:49:21.861Z,14.40
2022-08-17T09:52:00.255Z,20.23
2022-08-17T09:54:40.850Z,13.43
2022-08-17T09:57:31.774Z,12.43
2022-08-17T10:00:10.814Z,15.48
2022-08-17T10:03:06.198Z,16.75
2022-08-17T10:05:46.526Z,17.20
2022-08-17T10:08:52.540Z,14.57
2022-08-17T10:12:12.759Z,20.75
2022-08-17T10:15:08.014Z,16.10
2022-08-17T10:17:56.841Z,12.63
2022-08-17T10:20:30.282Z,20.48
2022-08-17T10:23:21.879Z,14.00
2022-08-17T10:29:11.367Z,13.52
2022-08-17T10:31:46.593Z,16.20
2022-08-17T10:34:45.008Z,15.82
2022-08-17T10:37:37.865Z,15.98
2022-08-17T10:40:36.428Z,11.15
2022-08-17T10:43:15.406Z,17.27
2022-08-17T10:45:46.041Z,16.45
2022-08-17T10:48:14.110Z,16.70
2022-08-17T10:50:56.078Z,20.50
2022-08-17T10:53:32.045Z,14.57
2022-08-17T10:56:13.995Z,19.25
2022-08-17T10:58:54.722Z,20.13
2022-08-17T11:02:14.016Z,21.08
2022-08-17T11:04:43.641Z,17.17
2022-08-17T11:07:19.586Z,17.48
2022-08-17T11:10:05.336Z,15.38
2022-08-17T11:12:51.319Z,22.67
2022-08-17T11:15:59.486Z,23.40
2022-08-17T11:19:05.961Z,26.08
2022-08-17T11:21:57.340Z,16.45
2022-08-17T11:24:38.153Z,22.40
2022-08-17T11:27:13.917Z,15.48
2022-08-17T11:29:53.524Z,19.50
2022-08-17T11:32:37.408Z,20.23
2022-08-17T11:35:32.165Z,15.98
2022-08-17T11:38:16.451Z,20.83
2022-08-17T11:41:12.459Z,19.52
2022-08-17T11:44:16.535Z,17.90
2022-08-17T11:47:17.238Z,16.75
2022-08-17T11:50:17.863Z,16.33
2022-08-17T11:52:47.640Z,18.50
2022-08-17T11:55:36.363Z,22.67
2022-08-17T11:58:30.047Z,18.23
2022-08-17T12:01:06.941Z,31.98
2022-08-17T12:03:33.786Z,20.20
2022-08-17T12:06:05.769Z,20.25
2022-08-17T12:08:38.354Z,21.58
2022-08-17T12:11:16.587Z,28.58
2022-08-17T12:14:04.761Z,17.05
2022-08-17T12:16:31.592Z,19.98
2022-08-17T12:19:02.444Z,17.65
2022-08-17T12:21:51.854Z,18.15
2022-08-17T12:24:29.282Z,22.48
2022-08-17T12:26:59.674Z,19.30
2022-08-17T12:29:38.931Z,19.55
2022-08-17T12:32:13.130Z,18.40
2022-08-17T12:34:42.711Z,16.50
2022-08-17T12:37:36.489Z,19.08
2022-08-17T12:40:17.599Z,18.23
2022-08-17T12:42:56.608Z,18.42
2022-08-17T12:45:41.915Z,18.77
2022-08-17T12:48:12.436Z,19.38
2022-08-17T12:50:45.103Z,19.90
2022-08-17T12:53:17.397Z,20.55
2022-08-17T12:55:44.608Z,17.83
2022-08-17T12:58:16.996Z,18.95
2022-08-17T13:00:57.946Z,18.38
2022-08-17T13:06:25.668Z,21.88
2022-08-17T13:08:52.504Z,18.85
2022-08-17T13:11:24.251Z,21.50
2022-08-17T13:13:55.129Z,18.15
2022-08-17T13:16:23.772Z,22.13
2022-08-17T13:19:15.175Z,21.50
2022-08-17T13:21:54.087Z,23.98
2022-08-17T13:24:25.997Z,22.52
2022-08-17T13:26:54.455Z,20.05
2022-08-17T13:29:29.599Z,17.90
2022-08-17T13:32:13.114Z,23.30
2022-08-17T13:35:12.469Z,24.05
2022-08-17T13:37:42.616Z,20.93
2022-08-17T13:40:09.595Z,19.35
2022-08-17T13:42:52.407Z,18.70
2022-08-17T13:45:36.369Z,20.10
2022-08-17T13:48:07.748Z,22.13
2022-08-17T13:50:56.409Z,19.52
2022-08-17T13:53:40.397Z,25.92
2022-08-17T13:56:38.301Z,20.20
2022-08-17T13:59:38.230Z,25.02
2022-08-17T14:02:13.951Z,24.67
2022-08-17T14:04:44.165Z,21.98
2022-08-17T14:07:13.563Z,20.30
2022-08-17T14:09:47.802Z,24.05
2022-08-17T14:12:18.077Z,23.08
2022-08-17T14:14:45.373Z,19.13
2022-08-17T14:17:12.497Z,20.15
2022-08-17T14:19:39.870Z,22.50
2022-08-17T14:22:19.503Z,20.45
2022-08-17T14:24:46.407Z,22.60
2022-08-17T14:27:13.226Z,21.50
2022-08-17T14:29:41.301Z,23.38
2022-08-17T14:32:20.602Z,19.88
2022-08-17T14:34:49.638Z,19.55
2022-08-17T14:37:20.794Z,16.35
2022-08-17T14:39:48.039Z,17.55
2022-08-17T14:42:15.576Z,18.63
2022-08-17T14:44:42.478Z,17.77
2022-08-17T14:47:15.797Z,19.20
2022-08-17T14:49:42.633Z,23.50
2022-08-17T14:52:12.937Z,21.98
2022-08-17T14:54:45.150Z,18.48
2022-08-17T14:57:24.880Z,18.02
2022-08-17T14:59:59.917Z,17.60
2022-08-17T15:02:29.631Z,20.10
2022-08-17T15:05:02.994Z,14.25
2022-08-17T15:07:31.046Z,15.48
2022-08-17T15:10:02.052Z,18.23
2022-08-17T15:12:33.656Z,17.33
2022-08-17T15:15:01.836Z,19.33
2022-08-17T15:17:44.397Z,17.08
2022-08-17T15:20:19.148Z,17.80
2022-08-17T15:22:49.800Z,17.02
2022-08-17T15:25:18.962Z,17.85
2022-08-17T15:27:46.235Z,18.08
2022-08-17T15:30:13.622Z,15.38
2022-08-17T15:32:50.896Z,18.20
2022-08-17T15:35:26.798Z,18.92
2022-08-17T15:37:56.619Z,23.35
2022-08-17T15:40:23.446Z,17.45
2022-08-17T15:42:51.130Z,16.58
2022-08-17T15:45:23.034Z,19.45
2022-08-17T15:47:49.947Z,19.45
2022-08-17T15:50:17.030Z,16.85
2022-08-17T15:52:45.001Z,16.75
2022-08-17T15:55:13.959Z,16.10
2022-08-17T15:57:41.311Z,17.23
2022-08-17T16:00:09.813Z,19.27
2022-08-17T16:03:14.013Z,17.60
2022-08-17T16:05:27.336Z,17.52
2022-08-17T16:07:55.840Z,21.17
2022-08-17T16:10:35.509Z,20.50
2022-08-17T16:13:04.239Z,19.17
2022-08-17T16:15:31.987Z,24.80
2022-08-17T16:17:59.653Z,20.23
2022-08-17T16:20:27.088Z,17.45
2022-08-17T16:22:54.954Z,22.83
2022-08-17T16:25:52.533Z,20.75
2022-08-17T16:28:20.108Z,20.88
2022-08-17T16:30:46.951Z,17.00
2022-08-17T16:33:15.080Z,20.15
2022-08-17T16:35:42.169Z,16.73
2022-08-17T16:38:09.630Z,23.48
2022-08-17T16:40:36.692Z,22.40
2022-08-17T16:43:07.030Z,20.80
2022-08-17T16:45:36.773Z,18.90
2022-08-17T16:48:04.514Z,17.52
2022-08-17T16:50:32.346Z,22.33
2022-08-17T16:53:08.283Z,18.60
2022-08-17T16:55:35.835Z,17.58
2022-08-17T16:58:06.880Z,19.92
2022-08-17T17:00:34.127Z,20.73
2022-08-17T17:03:19.090Z,19.77
2022-08-17T17:06:13.496Z,21.85
2022-08-17T17:08:52.287Z,24.00
2022-08-17T17:11:27.011Z,20.45
2022-08-17T17:14:01.571Z,25.00
2022-08-17T17:16:45.690Z,22.58
2022-08-17T17:19:40.642Z,19.10
2022-08-17T17:22:30.736Z,22.65
2022-08-17T17:25:06.446Z,17.33
2022-08-17T17:28:01.237Z,22.70
2022-08-17T17:31:01.931Z,19.10
2022-08-17T17:33:48.946Z,21.10
2022-08-17T17:36:28.763Z,22.55
2022-08-17T17:39:12.068Z,21.85
2022-08-17T17:41:51.280Z,19.05
2022-08-17T17:44:24.715Z,20.20
2022-08-17T17:47:00.309Z,15.25
2022-08-17T17:49:38.580Z,18.98
2022-08-17T17:52:19.439Z,19.88
2022-08-17T17:55:10.466Z,18.60
2022-08-17T17:57:58.915Z,18.88
2022-08-17T18:00:30.105Z,20.48
2022-08-17T18:03:20.423Z,26.25
2022-08-17T18:05:47.229Z,16.92
2022-08-17T18:08:42.013Z,17.67
2022-08-17T18:11:24.540Z,19.75
2022-08-17T18:14:14.475Z,22.73
2022-08-17T18:16:43.043Z,16.95
2022-08-17T18:19:19.852Z,22.25
2022-08-17T18:21:54.688Z,23.50
2022-08-17T18:24:38.731Z,22.25
2022-08-17T18:27:28.589Z,23.90
2022-08-17T18:29:57.588Z,23.42
2022-08-17T18:32:31.163Z,21.25
2022-08-17T18:35:00.226Z,23.85
2022-08-17T18:37:40.303Z,28.13
2022-08-17T18:40:16.307Z,24.67
2022-08-17T18:43:04.586Z,26.67
2022-08-17T18:45:40.930Z,27.17
2022-08-17T18:48:20.744Z,25.25
2022-08-17T18:50:47.777Z,24.02
2022-08-17T18:53:33.206Z,24.20
2022-08-17T18:56:27.630Z,19.63
2022-08-17T18:59:22.609Z,21.40
2022-08-17T19:02:27.208Z,22.67
2022-08-17T19:05:13.694Z,21.63
2022-08-17T19:07:45.545Z,19.83
2022-08-17T19:10:31.851Z,20.05
2022-08-17T19:13:26.955Z,19.98
2022-08-17T19:16:12.168Z,21.70
2022-08-17T19:18:53.663Z,21.10
2022-08-17T19:21:23.243Z,24.10
2022-08-17T19:24:03.451Z,22.35
2022-08-17T19:26:54.369Z,23.00
2022-08-17T19:29:34.832Z,25.90
2022-08-17T19:32:02.041Z,21.40
2022-08-17T19:34:34.774Z,20.15
2022-08-17T19:37:38.785Z,22.10
2022-08-17T19:43:47.955Z,24.77
2022-08-17T19:46:24.568Z,22.65
2022-08-17T19:48:54.055Z,28.25
2022-08-17T19:51:45.469Z,22.65
2022-08-17T19:54:45.209Z,24.92
2022-08-17T19:57:11.928Z,22.08
2022-08-17T19:59:55.941Z,20.27
2022-08-17T20:02:34.869Z,21.83
2022-08-17T20:05:18.674Z,21.23
2022-08-17T20:08:05.749Z,22.88
2022-08-17T20:10:58.700Z,20.25
2022-08-17T20:13:35.729Z,21.88
2022-08-17T20:16:04.287Z,19.33
2022-08-17T20:18:36.303Z,23.13
2022-08-17T20:21:26.823Z,22.85
2022-08-17T20:24:16.618Z,21.48
2022-08-17T20:26:58.500Z,21.45
2022-08-17T20:29:51.673Z,22.98
2022-08-17T20:32:28.547Z,24.08
2022-08-17T20:35:09.196Z,22.13
2022-08-17T20:37:39.342Z,22.35
2022-08-17T20:40:09.424Z,22.95
2022-08-17T20:42:37.575Z,19.52
2022-08-17T20:45:26.100Z,27.02
2022-08-17T20:48:27.257Z,29.45
2022-08-17T20:50:56.381Z,25.40
2022-08-17T20:53:48.123Z,23.40
2022-08-17T20:56:49.165Z,22.27
2022-08-17T20:59:30.348Z,22.25
2022-08-17T21:02:18.952Z,18.77
2022-08-17T21:05:05.452Z,18.98
2022-08-17T21:07:43.000Z,16.08
2022-08-17T21:10:25.964Z,18.83
2022-08-17T21:12:55.841Z,19.13
2022-08-17T21:16:19.954Z,19.35
2022-08-17T21:19:00.440Z,19.05
2022-08-17T21:22:05.506Z,19.15
2022-08-17T21:25:06.031Z,17.00
2022-08-17T21:28:18.100Z,20.08
2022-08-17T21:30:54.478Z,18.42
2022-08-17T21:33:34.191Z,25.17
2022-08-17T21:36:12.971Z,16.20
2022-08-17T21:38:57.763Z,21.20
2022-08-17T21:41:30.825Z,17.63
2022-08-17T21:44:13.785Z,20.23
2022-08-17T21:46:46.737Z,22.52
2022-08-17T21:49:18.420Z,17.10
2022-08-17T21:51:50.521Z,28.98
2022-08-17T21:54:38.918Z,19.98
2022-08-17T21:57:14.724Z,16.60
2022-08-17T21:59:43.692Z,18.98
2022-08-17T22:02:24.008Z,22.80
2022-08-17T22:05:07.096Z,21.20
2022-08-17T22:07:50.621Z,18.00
2022-08-17T22:10:35.053Z,20.23
2022-08-17T22:13:16.717Z,23.45
2022-08-17T22:15:50.255Z,21.58
2022-08-17T22:18:26.920Z,18.77
2022-08-17T22:20:56.568Z,19.38
2022-08-17T22:23:47.041Z,20.17
2022-08-17T22:26:16.979Z,18.50
2022-08-17T22:28:53.587Z,23.38
2022-08-17T22:31:24.388Z,21.50
2022-08-17T22:34:09.486Z,22.73
2022-08-17T22:36:39.032Z,24.70
2022-08-17T22:39:28.484Z,18.60
2022-08-17T22:42:00.469Z,19.98
2022-08-17T22:44:37.818Z,19.50
2022-08-17T22:47:11.557Z,19.58
2022-08-17T22:49:53.889Z,20.98
2022-08-17T22:53:01.898Z,18.23
2022-08-17T22:55:50.080Z,19.95
2022-08-17T22:58:38.953Z,23.83
2022-08-17T23:01:29.733Z,21.42
2022-08-17T23:04:01.540Z,21.25
2022-08-17T23:08:57.705Z,24.52
2022-08-17T23:11:36.677Z,28.42
2022-08-17T23:14:15.846Z,21.58
2022-08-17T23:16:43.003Z,22.48
2022-08-17T23:19:11.537Z,22.55
2022-08-17T23:21:38.466Z,20.17
2022-08-17T23:24:07.883Z,22.38
2022-08-17T23:26:41.017Z,20.23
2022-08-17T23:29:09.434Z,21.08
2022-08-17T23:31:38.946Z,27.67
2022-08-17T23:34:11.643Z,21.42
2022-08-17T23:36:38.479Z,21.23
2022-08-17T23:39:07.027Z,23.20
2022-08-17T23:41:37.563Z,23.38
2022-08-17T23:44:05.936Z,20.58
2022-08-17T23:46:33.051Z,22.58
2022-08-17T23:49:00.513Z,20.55
2022-08-17T23:51:34.820Z,22.25
2022-08-17T23:54:11.652Z,20.20
2022-08-17T23:56:47.694Z,22.58
2022-08-17T23:59:16.410Z,19.88
